createdAt,value
2023-05-02T00:02:24.480Z,18.66
2023-05-02T00:08:11.201Z,18.59
2023-05-02T00:13:55.955Z,18.53
2023-05-02T00:19:42.041Z,18.45
2023-05-02T00:25:26.738Z,18.39
2023-05-02T00:31:12.319Z,18.35
2023-05-02T00:36:57.177Z,18.3
2023-05-02T00:42:41.945Z,18.23
2023-05-02T00:48:26.797Z,18.19
2023-05-02T00:54:11.493Z,18.13
2023-05-02T00:59:56.836Z,18.06
2023-05-02T01:05:44.910Z,18.02
2023-05-02T01:11:35.413Z,18.04
2023-05-02T01:17:21.652Z,18.05
2023-05-02T01:23:09.312Z,18.04
2023-05-02T01:29:03.978Z,18.05
2023-05-02T01:34:50.087Z,18.07
2023-05-02T01:40:37.261Z,18.04
2023-05-02T01:46:22.477Z,18.08
2023-05-02T01:52:10.679Z,18.06
2023-05-02T01:57:56.374Z,18.06
2023-05-02T02:03:41.779Z,18.05
2023-05-02T02:09:27.530Z,18.04
2023-05-02T02:15:16.979Z,18.06
2023-05-02T02:21:02.506Z,18.04
2023-05-02T02:26:47.379Z,18.02
2023-05-02T02:32:32.108Z,18.01
2023-05-02T02:38:20.812Z,17.98
2023-05-02T02:44:13.645Z,18
2023-05-02T02:50:03.405Z,17.99
2023-05-02T02:55:52.251Z,17.97
2023-05-02T03:01:39.952Z,17.92
2023-05-02T03:07:27.448Z,17.89
2023-05-02T03:13:12.131Z,17.86
2023-05-02T03:18:56.805Z,17.82
2023-05-02T03:24:41.725Z,17.79
2023-05-02T03:30:26.293Z,17.75
2023-05-02T03:36:11.252Z,17.71
2023-05-02T03:41:55.792Z,17.69
2023-05-02T03:47:40.413Z,17.64
2023-05-02T03:53:25.280Z,17.59
2023-05-02T03:59:09.946Z,17.57
2023-05-02T04:04:54.645Z,17.55
2023-05-02T04:10:39.533Z,17.55
2023-05-02T04:16:24.196Z,17.57
2023-05-02T04:22:08.998Z,17.57
2023-05-02T04:27:53.669Z,17.57
2023-05-02T04:33:38.569Z,17.57
2023-05-02T04:39:24.418Z,17.57
2023-05-02T04:45:09.585Z,17.61
2023-05-02T04:50:54.535Z,17.62
2023-05-02T04:56:39.319Z,17.65
2023-05-02T05:02:24.143Z,17.64
2023-05-02T05:08:09.217Z,17.68
2023-05-02T05:13:53.808Z,17.72
2023-05-02T05:19:38.856Z,17.79
2023-05-02T05:25:23.611Z,17.8
2023-05-02T05:31:13.557Z,17.83
2023-05-02T05:37:00.549Z,17.86
2023-05-02T05:42:45.352Z,17.89
2023-05-02T05:48:30.198Z,17.99
2023-05-02T05:54:16.496Z,18
2023-05-02T06:00:01.544Z,18.12
2023-05-02T06:05:47.008Z,18.13
2023-05-02T06:11:31.834Z,18.17
2023-05-02T06:17:16.816Z,18.22
2023-05-02T06:23:02.384Z,18.27
2023-05-02T06:28:47.205Z,18.31
2023-05-02T06:34:32.139Z,18.35
2023-05-02T06:40:17.270Z,18.48
2023-05-02T06:46:04.403Z,18.49
2023-05-02T06:51:49.120Z,18.5
2023-05-02T06:57:33.767Z,18.57
2023-05-02T07:03:19.484Z,18.54
2023-05-02T07:09:04.242Z,18.53
2023-05-02T07:14:49.051Z,18.57
2023-05-02T07:20:33.755Z,18.62
2023-05-02T07:26:18.547Z,18.58
2023-05-02T07:32:03.745Z,18.57
2023-05-02T07:37:49.138Z,18.67
2023-05-02T07:43:34.042Z,18.75
2023-05-02T07:49:18.726Z,18.85
2023-05-02T07:55:03.455Z,19.12
2023-05-02T08:00:48.455Z,19.37
2023-05-02T08:06:34.046Z,19.57
2023-05-02T08:12:19.212Z,19.9
2023-05-02T08:18:04.756Z,20.23
2023-05-02T08:23:49.718Z,20.59
2023-05-02T08:29:34.685Z,20.67
2023-05-02T08:35:19.354Z,20.98
2023-05-02T08:41:09.209Z,21.09
2023-05-02T08:47:00.411Z,21.08
2023-05-02T08:52:45.919Z,21.02
2023-05-02T08:58:30.766Z,21
2023-05-02T09:04:15.494Z,21.1
2023-05-02T09:10:00.444Z,21.25
2023-05-02T09:15:50.189Z,21.57
2023-05-02T09:21:39.725Z,21.83
2023-05-02T09:27:24.589Z,21.82
2023-05-02T09:33:09.463Z,21.97
2023-05-02T09:38:59.066Z,22.24
2023-05-02T09:44:43.982Z,22.26
2023-05-02T09:50:38.562Z,22.44
2023-05-02T09:56:23.921Z,22.71
2023-05-02T10:02:09.848Z,22.92
2023-05-02T10:07:54.700Z,23.13
2023-05-02T10:13:40.602Z,23.28
2023-05-02T10:19:29.762Z,23.26
2023-05-02T10:25:14.670Z,23.15
2023-05-02T10:31:00.394Z,23.18
2023-05-02T10:36:45.852Z,23.08
2023-05-02T10:42:30.698Z,23.27
2023-05-02T10:48:22.300Z,23.71
2023-05-02T10:54:23.043Z,23.96
2023-05-02T11:00:18.437Z,24.43
2023-05-02T11:06:09.074Z,24.46
2023-05-02T11:11:54.832Z,24.36
2023-05-02T11:17:53.201Z,24.49
2023-05-02T11:23:37.945Z,24.5
2023-05-02T11:29:33.517Z,24.77
2023-05-02T11:35:19.143Z,24.54
2023-05-02T11:41:04.100Z,24.48
2023-05-02T11:46:49.004Z,24.79
2023-05-02T11:52:36.862Z,25.18
2023-05-02T11:58:22.390Z,25.23
2023-05-02T12:04:08.228Z,25.18
2023-05-02T12:09:55.793Z,25.17
2023-05-02T12:15:40.624Z,25.02
2023-05-02T12:21:25.825Z,24.71
2023-05-02T12:27:14.272Z,24.63
2023-05-02T12:33:01.460Z,24.72
2023-05-02T12:38:52.199Z,24.68
2023-05-02T12:44:41.874Z,24.54
2023-05-02T12:50:38.412Z,25.06
2023-05-02T12:56:23.024Z,25.22
2023-05-02T13:02:07.652Z,25.42
2023-05-02T13:07:52.356Z,25.71
2023-05-02T13:13:37.246Z,25.67
2023-05-02T13:19:22.241Z,25.59
2023-05-02T13:25:08.454Z,25.44
2023-05-02T13:30:53.651Z,25.21
2023-05-02T13:36:38.817Z,25
2023-05-02T13:42:23.362Z,25.04
2023-05-02T13:48:08.556Z,24.96
2023-05-02T13:53:53.737Z,25.45
2023-05-02T13:59:39.295Z,25.73
2023-05-02T14:05:24.368Z,26.01
2023-05-02T14:11:09.486Z,26.01
2023-05-02T14:16:54.197Z,26.4
2023-05-02T14:22:38.725Z,26.5
2023-05-02T14:28:23.260Z,26.77
2023-05-02T14:34:09.009Z,27.09
2023-05-02T14:39:55.006Z,26.96
2023-05-02T14:45:39.822Z,26.93
2023-05-02T14:51:24.560Z,26.62
2023-05-02T14:57:09.365Z,26.44
2023-05-02T15:02:54.696Z,26.14
2023-05-02T15:08:40.003Z,26.13
2023-05-02T15:14:25.660Z,25.93
2023-05-02T15:20:11.433Z,26.27
2023-05-02T15:25:56.502Z,26.57
2023-05-02T15:31:41.175Z,26.81
2023-05-02T15:37:25.814Z,27.21
2023-05-02T15:43:10.783Z,27.48
2023-05-02T15:48:55.379Z,27.75
2023-05-02T15:54:40.119Z,28.05
2023-05-02T16:00:24.907Z,28.3
2023-05-02T16:06:09.628Z,28.62
2023-05-02T16:11:54.424Z,28.92
2023-05-02T16:17:38.910Z,29.22
2023-05-02T16:23:23.682Z,29.51
2023-05-02T16:29:08.801Z,29.83
2023-05-02T16:34:53.627Z,30.51
2023-05-02T16:40:38.343Z,32.23
2023-05-02T16:46:22.960Z,33.61
2023-05-02T16:52:07.799Z,34.65
2023-05-02T16:57:52.547Z,35.24
2023-05-02T17:03:37.291Z,35.36
2023-05-02T17:09:22.351Z,35.05
2023-05-02T17:15:07.576Z,34.7
2023-05-02T17:20:52.267Z,34.19
2023-05-02T17:26:37.111Z,33.66
2023-05-02T17:32:21.811Z,33.11
2023-05-02T17:38:06.891Z,32.39
2023-05-02T17:43:51.713Z,31.63
2023-05-02T17:49:37.042Z,30.88
2023-05-02T17:55:21.702Z,30.1
2023-05-02T18:01:11.007Z,29.29
2023-05-02T18:06:56.288Z,28.62
2023-05-02T18:12:40.918Z,28.07
2023-05-02T18:18:25.690Z,27.71
2023-05-02T18:24:10.902Z,27.21
2023-05-02T18:29:56.053Z,26.82
2023-05-02T18:35:44.302Z,26.55
2023-05-02T18:41:28.909Z,26.27
2023-05-02T18:47:13.765Z,25.97
2023-05-02T18:52:58.396Z,25.71
2023-05-02T18:58:44.070Z,25.49
2023-05-02T19:04:29.932Z,25.21
2023-05-02T19:10:14.706Z,24.98
2023-05-02T19:15:59.475Z,24.77
2023-05-02T19:21:44.506Z,24.5
2023-05-02T19:27:29.375Z,24.25
2023-05-02T19:33:13.941Z,24
2023-05-02T19:38:58.631Z,23.81
2023-05-02T19:44:43.907Z,23.68
2023-05-02T19:50:29.404Z,23.48
2023-05-02T19:56:14.151Z,23.3
2023-05-02T20:01:58.841Z,23.1
2023-05-02T20:07:43.347Z,22.95
2023-05-02T20:13:27.981Z,22.82
2023-05-02T20:19:13.194Z,22.69
2023-05-02T20:24:59.544Z,22.51
2023-05-02T20:30:44.281Z,22.35
2023-05-02T20:36:29.016Z,22.21
2023-05-02T20:42:13.685Z,22.05
2023-05-02T20:47:58.549Z,21.98
2023-05-02T20:53:43.616Z,21.8
2023-05-02T20:59:28.391Z,21.66
2023-05-02T21:05:13.268Z,21.5
2023-05-02T21:10:58.061Z,21.37
2023-05-02T21:16:42.880Z,21.25
2023-05-02T21:22:27.380Z,21.13
2023-05-02T21:28:13.433Z,21.02
2023-05-02T21:33:58.015Z,20.91
2023-05-02T21:39:42.678Z,20.8
2023-05-02T21:45:27.381Z,20.68
2023-05-02T21:51:12.221Z,20.56
2023-05-02T21:56:56.930Z,20.49
2023-05-02T22:02:41.479Z,20.37
2023-05-02T22:08:26.639Z,20.26
2023-05-02T22:14:11.328Z,20.21
2023-05-02T22:19:55.945Z,20.08
2023-05-02T22:25:42.510Z,20.02
2023-05-02T22:31:27.345Z,19.87
2023-05-02T22:37:12.241Z,19.75
2023-05-02T22:42:56.982Z,19.65
2023-05-02T22:48:41.714Z,19.56
2023-05-02T22:54:26.582Z,19.45
2023-05-02T23:00:13.176Z,19.36
2023-05-02T23:05:58.019Z,19.28
2023-05-02T23:11:42.826Z,19.21
2023-05-02T23:17:27.685Z,19.12
2023-05-02T23:23:12.520Z,19.09
2023-05-02T23:28:57.319Z,18.95
2023-05-02T23:34:42.100Z,18.89
2023-05-02T23:40:26.985Z,18.8
2023-05-02T23:46:11.949Z,18.72
2023-05-02T23:51:56.685Z,18.63
2023-05-02T23:57:41.639Z,18.53
